Saint-Francois-Du-Lac, Canada
Current Conditions -  °F | °C
As of 3:00 PM on Friday 21 Nov 2014 (Local Time) from CYRQ Reporting Station
Clear Clear  
Wind Chill: 13°   Ceiling: Unl
Heat Index: 21°   Visibility: 9mi
Dew Point:   Wind: 7mph
Humidity: 54%   Direction: 280°W
Pressure: 30.17"   Gusts: NA
Location:  46.07°N, 72.83°W
Report Text: CYRQ 212000Z AUTO 28006KT 9SM CLR M06/M14 A3017 RMK SLP219
Loading
Personal Weather Stations






























Interactive Weather Map New forecast layout! Learn more

10-Day Weather Forecast

Advertisements
Track Severe Weather on mobile